Time;durP1;ratioP1;P1;durP2;ratioP2;P2;SDS_P1;SDS_P2;PMS_P1;PMS_P2;Temp;Humidity;BMP_temperature;BMP_pressure;BME280_temperature;BME280_humidity;BME280_pressure;Samples;Min_cycle;Max_cycle;Signal;HPM_P1;HPM_P2
2023/04/19 00:00:19;;;;;;;5.73;4.67;;;;;;;8.46;nan;99901.00;4975970;28;20888;-90
2023/04/19 00:02:49;;;;;;;8.35;5.35;;;;;;;8.45;nan;99898.44;4974536;28;20283;-90
2023/04/19 00:05:23;;;;;;;9.73;5.93;;;;;;;8.48;nan;99908.75;4973374;28;20581;-90
2023/04/19 00:07:59;;;;;;;;;;;;;;;;;;;;;
2023/04/19 00:10:29;;;;;;;6.82;5.22;;;;;;;8.59;nan;99909.94;4974900;28;20210;-89
2023/04/19 00:13:02;;;;;;;4.95;4.28;;;;;;;8.67;nan;99908.69;4973498;28;21282;-90
2023/04/19 00:15:28;;;;;;;8.13;5.47;;;;;;;8.73;nan;99911.00;4973586;28;20199;-89
2023/04/19 00:17:56;;;;;;;5.20;4.70;;;;;;;8.77;nan;99902.88;4972737;28;20694;-90
2023/04/19 00:20:29;;;;;;;7.55;5.20;;;;;;;8.83;nan;99899.09;4972463;28;20230;-89
2023/04/19 00:23:02;;;;;;;6.83;4.90;;;;;;;8.85;nan;99895.47;4974424;28;20306;-89
2023/04/19 00:25:30;;;;;;;7.57;5.18;;;;;;;8.84;nan;99896.41;4974201;28;20203;-89
2023/04/19 00:27:56;;;;;;;7.03;4.60;;;;;;;8.77;nan;99895.03;4972227;28;20335;-89
2023/04/19 00:30:27;;;;;;;8.73;5.73;;;;;;;8.70;nan;99896.28;4991767;28;20801;-90
2023/04/19 00:32:52;;;;;;;8.27;5.13;;;;;;;8.61;nan;99899.38;4993834;28;20454;-90
2023/04/19 00:35:18;;;;;;;9.00;5.20;;;;;;;8.55;nan;99900.53;4970824;28;20207;-90
2023/04/19 00:37:55;;;;;;;;;;;;;;;;;;;;;
2023/04/19 00:40:25;;;;;;;6.35;5.38;;;;;;;8.50;nan;99891.22;4976437;28;20686;-89
2023/04/19 00:42:53;;;;;;;6.90;5.32;;;;;;;8.50;nan;99891.22;4966705;28;20668;-90
2023/04/19 00:45:19;;;;;;;7.05;5.55;;;;;;;8.48;nan;99893.94;4959046;28;20685;-90
2023/04/19 00:47:55;;;;;;;7.78;5.22;;;;;;;8.46;nan;99890.53;4974613;28;20205;-90
2023/04/19 00:50:23;;;;;;;5.40;4.20;;;;;;;8.45;nan;99886.19;4994036;28;20211;-89
2023/04/19 00:52:59;;;;;;;7.43;4.97;;;;;;;8.43;nan;99890.69;4970888;28;20546;-90
2023/04/19 00:55:37;;;;;;;11.27;6.15;;;;;;;8.39;nan;99883.91;4974985;28;20199;-90
2023/04/19 00:58:07;;;;;;;5.60;4.63;;;;;;;8.35;nan;99882.34;4987901;28;20663;-90
2023/04/19 01:00:40;;;;;;;7.90;6.05;;;;;;;8.34;nan;99876.22;4972454;28;20203;-89
2023/04/19 01:03:19;;;;;;;7.47;5.47;;;;;;;8.37;nan;99883.09;4971926;28;20572;-90
2023/04/19 01:05:47;;;;;;;7.10;4.65;;;;;;;8.35;nan;99877.09;4975042;28;20204;-89
2023/04/19 01:08:15;;;;;;;5.57;4.95;;;;;;;8.36;nan;99884.03;4973894;28;20440;-88
2023/04/19 01:10:43;;;;;;;7.43;5.27;;;;;;;8.37;nan;99875.22;4971026;28;21060;-90
2023/04/19 01:13:08;;;;;;;7.15;5.30;;;;;;;8.37;nan;99877.84;4972821;28;20682;-89
2023/04/19 01:15:36;;;;;;;9.18;5.53;;;;;;;8.36;nan;99876.16;4969138;28;20637;-89
2023/04/19 01:18:02;;;;;;;8.07;5.47;;;;;;;8.32;nan;99872.88;4968336;28;21154;-89
2023/04/19 01:20:27;;;;;;;8.67;4.60;;;;;;;8.31;nan;99873.78;4971230;28;20483;-91
2023/04/19 01:22:58;;;;;;;6.47;5.47;;;;;;;8.31;nan;99865.09;4975283;28;20633;-89
2023/04/19 01:25:31;;;;;;;10.30;5.70;;;;;;;8.29;nan;99869.53;4970778;28;20254;-90
2023/04/19 01:28:04;;;;;;;7.10;5.45;;;;;;;8.23;nan;99869.84;4972908;28;20204;-90
2023/04/19 01:30:33;;;;;;;7.88;5.50;;;;;;;8.17;nan;99860.53;4970698;28;20210;-89
2023/04/19 01:33:09;;;;;;;7.55;5.40;;;;;;;8.08;nan;99856.63;4972405;28;20261;-90
2023/04/19 01:35:34;;;;;;;7.03;5.20;;;;;;;8.02;nan;99862.16;4966703;28;20463;-89
2023/04/19 01:38:00;;;;;;;7.67;5.30;;;;;;;7.96;nan;99865.88;4972062;28;20296;-89
2023/04/19 01:40:28;;;;;;;5.25;4.13;;;;;;;7.89;nan;99864.50;4972170;28;20809;-90
2023/04/19 01:42:54;;;;;;;7.00;4.63;;;;;;;7.87;nan;99862.91;4974139;28;20620;-89
2023/04/19 01:45:22;;;;;;;8.23;5.20;;;;;;;7.87;nan;99860.28;4972018;28;20974;-90
2023/04/19 01:47:51;;;;;;;7.47;4.80;;;;;;;7.86;nan;99850.75;4968815;28;20199;-89
2023/04/19 01:50:19;;;;;;;7.35;5.05;;;;;;;7.83;nan;99854.34;4957723;28;20764;-89
2023/04/19 01:52:44;;;;;;;7.10;4.20;;;;;;;7.81;nan;99847.50;4971661;28;20202;-91
2023/04/19 01:55:10;;;;;;;6.83;5.30;;;;;;;7.78;nan;99850.25;4974840;28;20269;-88
2023/04/19 01:57:43;;;;;;;5.50;5.00;;;;;;;7.74;nan;99847.78;4968473;28;20600;-90
2023/04/19 02:00:13;;;;;;;9.05;4.68;;;;;;;7.72;nan;99851.38;4993208;28;20211;-91
2023/04/19 02:02:44;;;;;;;7.40;4.50;;;;;;;7.68;nan;99850.69;4977884;28;20211;-91
2023/04/19 02:05:26;;;;;;;7.43;4.25;;;;;;;7.67;nan;99851.63;4978016;28;20211;-90
2023/04/19 02:07:53;;;;;;;6.53;4.13;;;;;;;7.57;nan;99852.97;4977891;28;20345;-90
2023/04/19 02:10:19;;;;;;;5.07;4.57;;;;;;;7.52;nan;99849.72;4944402;28;20741;-90
2023/04/19 02:12:45;;;;;;;6.40;5.10;;;;;;;7.39;nan;99857.28;4945288;28;20206;-89
2023/04/19 02:15:11;;;;;;;4.97;4.47;;;;;;;7.30;nan;99852.50;4941387;28;20454;-90
2023/04/19 02:17:37;;;;;;;6.57;5.37;;;;;;;7.28;nan;99855.19;4947299;28;20276;-88
2023/04/19 02:20:04;;;;;;;5.20;4.70;;;;;;;7.31;nan;99857.66;4938957;28;20199;-89
2023/04/19 02:22:32;;;;;;;5.35;4.20;;;;;;;7.32;nan;99848.91;4963103;28;20966;-89
2023/04/19 02:25:00;;;;;;;7.30;5.10;;;;;;;7.35;nan;99852.31;4965225;28;20203;-90
2023/04/19 02:27:29;;;;;;;9.00;6.10;;;;;;;7.36;nan;99849.59;4948578;28;20200;-89
2023/04/19 02:29:55;;;;;;;5.20;4.70;;;;;;;7.40;nan;99848.56;4965320;28;20222;-89
2023/04/19 02:32:23;;;;;;;6.88;5.15;;;;;;;7.43;nan;99842.34;4949829;28;20192;-90
2023/04/19 02:34:51;;;;;;;8.53;5.40;;;;;;;7.44;nan;99849.25;4968817;28;20196;-88
2023/04/19 02:37:17;;;;;;;6.63;5.50;;;;;;;7.42;nan;99843.25;4970195;28;20210;-89
2023/04/19 02:39:44;;;;;;;5.65;4.70;;;;;;;7.40;nan;99840.72;4969977;28;20199;-89
2023/04/19 02:42:12;;;;;;;6.30;4.32;;;;;;;7.42;nan;99840.63;4971062;28;20191;-89
2023/04/19 02:44:37;;;;;;;10.80;4.97;;;;;;;7.44;nan;99841.41;4973676;28;20200;-89
2023/04/19 02:47:03;;;;;;;9.03;5.30;;;;;;;7.44;nan;99841.41;4971747;28;20223;-89
2023/04/19 02:49:31;;;;;;;6.50;4.70;;;;;;;7.45;nan;99837.88;4956648;28;20216;-91
2023/04/19 02:51:57;;;;;;;4.93;4.40;;;;;;;7.50;nan;99833.28;4952619;28;20192;-89
2023/04/19 02:54:23;;;;;;;6.47;5.00;;;;;;;7.51;nan;99841.06;4954706;28;20196;-90
2023/04/19 02:56:50;;;;;;;7.85;5.82;;;;;;;7.53;nan;99840.97;4956162;28;20303;-90
2023/04/19 02:59:18;;;;;;;7.17;4.33;;;;;;;7.56;nan;99833.00;4951714;28;20286;-89
2023/04/19 03:01:44;;;;;;;5.65;4.22;;;;;;;7.56;nan;99833.00;4954510;28;20673;-89
2023/04/19 03:04:12;;;;;;;6.13;4.03;;;;;;;7.46;nan;99829.97;4947567;28;20741;-89
2023/04/19 03:06:40;;;;;;;6.53;5.13;;;;;;;7.40;nan;99837.22;4952759;28;20716;-89
2023/04/19 03:09:06;;;;;;;9.50;4.82;;;;;;;7.36;nan;99843.53;4982487;28;20629;-89
2023/04/19 03:11:34;;;;;;;4.40;4.00;;;;;;;7.35;nan;99842.69;4975309;28;20226;-87
2023/04/19 03:14:02;;;;;;;7.25;5.03;;;;;;;7.33;nan;99834.06;4967022;28;21231;-86
2023/04/19 03:16:29;;;;;;;7.43;4.80;;;;;;;7.28;nan;99831.66;4971742;28;20609;-87
2023/04/19 03:18:54;;;;;;;7.38;4.90;;;;;;;7.26;nan;99828.28;4968721;28;20231;-87
2023/04/19 03:21:26;;;;;;;7.70;5.35;;;;;;;7.23;nan;99828.41;4992363;28;20195;-87
2023/04/19 03:23:53;;;;;;;9.15;6.13;;;;;;;7.20;nan;99825.94;4973904;28;20888;-86
2023/04/19 03:26:19;;;;;;;6.60;5.93;;;;;;;7.19;nan;99836.47;4968463;28;20211;-87
2023/04/19 03:28:48;;;;;;;6.10;5.18;;;;;;;7.17;nan;99833.94;4987299;28;20207;-87
2023/04/19 03:31:20;;;;;;;8.25;5.45;;;;;;;7.17;nan;99838.31;4963656;28;20219;-87
2023/04/19 03:33:48;;;;;;;7.88;5.05;;;;;;;7.15;nan;99833.16;4962817;28;20349;-87
2023/04/19 03:36:14;;;;;;;5.93;5.35;;;;;;;7.16;nan;99832.25;4984247;28;20202;-87
2023/04/19 03:38:43;;;;;;;6.10;5.45;;;;;;;7.20;nan;99823.34;4969368;28;20233;-87
2023/04/19 03:41:18;;;;;;;7.13;5.68;;;;;;;7.24;nan;99822.28;4983932;28;20429;-87
2023/04/19 03:43:45;;;;;;;7.55;6.13;;;;;;;7.23;nan;99812.72;4964918;28;20222;-86
2023/04/19 03:46:10;;;;;;;12.52;5.75;;;;;;;7.22;nan;99818.88;4969372;28;20211;-86
2023/04/19 03:48:38;;;;;;;8.07;5.43;;;;;;;7.22;nan;99823.28;4970543;28;20195;-88
2023/04/19 03:51:06;;;;;;;7.88;6.28;;;;;;;7.24;nan;99821.44;4991204;28;21397;-87
2023/04/19 03:53:32;;;;;;;6.97;5.50;;;;;;;7.23;nan;99817.97;4966591;28;20234;-87
2023/04/19 03:55:58;;;;;;;9.00;5.90;;;;;;;7.26;nan;99812.63;4966315;28;20218;-88
2023/04/19 03:58:24;;;;;;;16.63;6.47;;;;;;;7.29;nan;99815.09;4968551;28;20253;-87
2023/04/19 04:01:08;;;;;;;;;;;;;;;;;;;;;
2023/04/19 04:03:46;;;;;;;6.45;5.57;;;;;;;7.38;nan;99808.56;4985434;28;20286;-87
2023/04/19 04:06:12;;;;;;;11.98;8.02;;;;;;;7.49;nan;99816.75;4970094;28;20444;-87
2023/04/19 04:08:38;;;;;;;9.13;6.47;;;;;;;7.53;nan;99818.31;4963904;28;20269;-87
2023/04/19 04:11:03;;;;;;;10.00;7.27;;;;;;;7.59;nan;99821.53;4966708;28;20548;-87
2023/04/19 04:13:29;;;;;;;8.10;6.43;;;;;;;7.65;nan;99823.88;4964075;28;20203;-87
2023/04/19 04:16:09;;;;;;;10.57;5.90;;;;;;;7.70;nan;99827.94;4963809;28;20606;-87
2023/04/19 04:18:38;;;;;;;8.53;7.43;;;;;;;7.74;nan;99819.03;4965502;28;20231;-87
2023/04/19 04:21:07;;;;;;;10.50;6.80;;;;;;;7.79;nan;99821.41;4968474;28;20195;-87
2023/04/19 04:23:36;;;;;;;16.13;8.52;;;;;;;7.80;nan;99827.50;4965259;28;20199;-87
2023/04/19 04:26:05;;;;;;;17.17;8.88;;;;;;;7.83;nan;99827.34;4959544;28;20325;-87
2023/04/19 04:28:46;;;;;;;12.38;9.25;;;;;;;7.89;nan;99833.13;4964726;28;20295;-87
2023/04/19 04:31:11;;;;;;;15.13;9.33;;;;;;;7.92;nan;99829.53;4968793;28;20219;-86
2023/04/19 04:33:46;;;;;;;12.52;9.00;;;;;;;7.97;nan;99832.75;4962303;28;20498;-87
2023/04/19 04:36:19;;;;;;;9.00;7.25;;;;;;;8.01;nan;99823.81;4962416;28;20806;-86
2023/04/19 04:38:48;;;;;;;11.35;8.95;;;;;;;8.03;nan;99832.44;4964048;28;20210;-86
2023/04/19 04:41:15;;;;;;;16.05;7.40;;;;;;;8.04;nan;99831.50;4962586;28;20724;-86
2023/04/19 04:43:50;;;;;;;12.82;7.80;;;;;;;8.09;nan;99831.28;4981887;28;20195;-86
2023/04/19 04:46:25;;;;;;;11.23;8.85;;;;;;;8.11;nan;99830.28;4965645;28;20203;-85
2023/04/19 04:48:54;;;;;;;12.30;8.57;;;;;;;8.16;nan;99841.38;4962391;28;20220;-86
2023/04/19 04:51:20;;;;;;;17.23;9.13;;;;;;;8.18;nan;99846.53;4966970;28;20818;-86
2023/04/19 04:53:48;;;;;;;14.98;9.98;;;;;;;8.19;nan;99841.22;4947560;28;20659;-87
2023/04/19 04:56:14;;;;;;;9.63;6.50;;;;;;;8.25;nan;99844.47;4964485;28;20708;-87
2023/04/19 04:58:39;;;;;;;11.63;8.37;;;;;;;8.29;nan;99845.97;4967576;28;21387;-86
2023/04/19 05:01:08;;;;;;;11.88;8.10;;;;;;;8.34;nan;99844.81;4961668;28;20199;-86
2023/04/19 05:03:37;;;;;;;11.48;8.07;;;;;;;8.38;nan;99846.38;4965301;28;20804;-86
2023/04/19 05:06:06;;;;;;;12.73;9.43;;;;;;;8.43;nan;99837.50;4987907;28;20191;-86
2023/04/19 05:08:32;;;;;;;15.27;11.30;;;;;;;8.46;nan;99840.78;4991020;28;20662;-87
2023/04/19 05:11:17;;;;;;;21.00;11.18;;;;;;;8.47;nan;99839.84;4967989;28;20686;-88
2023/04/19 05:13:53;;;;;;;17.17;10.82;;;;;;;8.51;nan;99835.31;4986382;28;20282;-87
2023/04/19 05:16:31;;;;;;;;;;;;;;;;;;;;;
2023/04/19 05:18:57;;;;;;;20.67;11.55;;;;;;;8.62;nan;99840.84;4971460;28;20222;-87
2023/04/19 05:21:28;;;;;;;18.60;11.85;;;;;;;8.69;nan;99844.81;4988092;28;20200;-86
2023/04/19 05:24:00;;;;;;;20.05;12.05;;;;;;;8.76;nan;99842.75;4971627;28;20861;-86
2023/04/19 05:26:42;;;;;;;12.80;9.48;;;;;;;8.83;nan;99841.47;4985727;28;20672;-87
2023/04/19 05:29:16;;;;;;;17.42;12.15;;;;;;;8.88;nan;99838.63;4972555;28;20203;-87
2023/04/19 05:31:45;;;;;;;12.73;10.30;;;;;;;8.92;nan;99846.25;4972224;28;20195;-87
2023/04/19 05:34:17;;;;;;;15.68;11.32;;;;;;;8.94;nan;99852.25;4965196;28;20175;-87
2023/04/19 05:36:45;;;;;;;17.07;11.53;;;;;;;8.97;nan;99848.63;4962365;28;20604;-86
2023/04/19 05:39:21;;;;;;;;;;;;;;;;;;;;;
2023/04/19 05:41:57;;;;;;;13.07;10.45;;;;;;;9.08;nan;99852.38;4971185;28;20565;-88
2023/04/19 05:44:25;;;;;;;16.60;10.10;;;;;;;9.12;nan;99849.56;4962738;28;20731;-87
2023/04/19 05:46:53;;;;;;;17.33;10.27;;;;;;;9.18;nan;99850.09;4966386;28;20253;-87
2023/04/19 05:49:41;;;;;;;15.70;9.50;;;;;;;9.25;nan;99856.69;4981481;28;20591;-87
2023/04/19 05:52:20;;;;;;;14.68;9.07;;;;;;;9.31;nan;99845.84;4951467;28;20386;-86
2023/04/19 05:54:49;;;;;;;20.10;11.05;;;;;;;9.37;nan;99852.56;4972968;28;20991;-87
2023/04/19 05:57:23;;;;;;;18.87;12.90;;;;;;;9.45;nan;99855.63;4966425;28;20202;-86
2023/04/19 06:00:00;;;;;;;17.02;11.77;;;;;;;9.55;nan;99853.31;4968472;28;20207;-86
2023/04/19 06:02:43;;;;;;;17.63;11.13;;;;;;;9.61;nan;99855.59;4964767;28;20194;-86
2023/04/19 06:05:30;;;;;;;14.20;11.05;;;;;;;9.66;nan;99853.56;4969193;28;20203;-86
2023/04/19 06:08:08;;;;;;;15.70;9.52;;;;;;;9.71;nan;99861.19;4972798;28;20255;-86
2023/04/19 06:10:36;;;;;;;14.70;9.65;;;;;;;9.76;nan;99851.28;4990417;28;20417;-86
2023/04/19 06:13:09;;;;;;;14.30;10.10;;;;;;;9.80;nan;99855.41;4994280;28;20995;-86
2023/04/19 06:15:57;;;;;;;14.77;12.27;;;;;;;9.82;nan;99853.56;4973044;28;21073;-86
2023/04/19 06:18:23;;;;;;;13.20;10.27;;;;;;;9.83;nan;99850.00;4965804;28;20233;-86
2023/04/19 06:20:54;;;;;;;11.55;10.43;;;;;;;9.88;nan;99854.97;4966453;28;20195;-87
2023/04/19 06:23:27;;;;;;;14.23;9.70;;;;;;;9.93;nan;99856.41;4966519;28;20208;-86
2023/04/19 06:25:53;;;;;;;15.10;10.35;;;;;;;10.00;nan;99850.81;4968373;28;20470;-86
2023/04/19 06:28:18;;;;;;;13.63;11.03;;;;;;;10.05;nan;99851.41;4962532;28;20203;-86
2023/04/19 06:30:46;;;;;;;15.20;9.87;;;;;;;10.09;nan;99851.13;4966657;28;21292;-86
2023/04/19 06:33:14;;;;;;;16.02;10.63;;;;;;;10.16;nan;99856.88;4965545;28;20828;-86
2023/04/19 06:35:57;;;;;;;;;;;;;;;;;;;;;
2023/04/19 06:38:31;;;;;;;14.85;10.23;;;;;;;10.30;nan;99859.56;4966553;28;20207;-87
2023/04/19 06:41:01;;;;;;;19.88;11.90;;;;;;;10.36;nan;99856.56;4970359;28;20187;-87
2023/04/19 06:43:39;;;;;;;17.98;11.32;;;;;;;10.40;nan;99855.47;4965460;28;20231;-87
2023/04/19 06:46:07;;;;;;;18.80;11.40;;;;;;;10.39;nan;99859.03;4966085;28;20199;-87
2023/04/19 06:48:40;;;;;;;15.87;10.90;;;;;;;10.43;nan;99858.88;4965411;28;20249;-87
2023/04/19 06:51:08;;;;;;;16.17;11.02;;;;;;;10.48;nan;99856.81;4967430;28;20226;-87
2023/04/19 06:53:43;;;;;;;16.83;11.23;;;;;;;10.54;nan;99859.06;4964400;28;20517;-87
2023/04/19 06:56:09;;;;;;;17.02;12.15;;;;;;;10.59;nan;99857.84;4958533;28;20648;-88
2023/04/19 06:58:49;;;;;;;13.23;10.50;;;;;;;10.63;nan;99851.47;4967245;28;20253;-87
2023/04/19 07:01:29;;;;;;;;;;;;;;;;;;;;;
2023/04/19 07:03:58;;;;;;;18.02;11.85;;;;;;;10.73;nan;99856.19;4961525;28;20321;-88
2023/04/19 07:06:24;;;;;;;19.83;12.67;;;;;;;10.77;nan;99852.41;4965495;28;20525;-87
2023/04/19 07:08:49;;;;;;;20.47;10.90;;;;;;;10.84;nan;99853.75;4966159;28;21055;-88
2023/04/19 07:11:17;;;;;;;13.37;10.83;;;;;;;10.88;nan;99849.16;4965921;28;20696;-87
2023/04/19 07:14:02;;;;;;;16.05;11.07;;;;;;;10.92;nan;99851.50;4964982;28;20215;-88
2023/04/19 07:16:35;;;;;;;16.02;12.93;;;;;;;10.99;nan;99851.94;4969176;28;20301;-87
2023/04/19 07:19:12;;;;;;;14.45;12.40;;;;;;;11.05;nan;99848.97;4970030;28;20502;-87
2023/04/19 07:21:54;;;;;;;;;;;;;;;;;;;;;
2023/04/19 07:24:32;;;;;;;;;;;;;;;;;;;;;
2023/04/19 07:27:09;;;;;;;15.27;12.10;;;;;;;11.28;nan;99842.25;4963569;28;21076;-88
2023/04/19 07:29:34;;;;;;;17.67;13.50;;;;;;;11.32;nan;99841.16;4971558;28;20203;-87
2023/04/19 07:32:14;;;;;;;18.55;11.48;;;;;;;11.36;nan;99834.72;4965383;28;20209;-88
2023/04/19 07:34:50;;;;;;;17.20;11.20;;;;;;;11.46;nan;99841.09;4973469;28;20499;-88
2023/04/19 07:37:22;;;;;;;13.13;10.30;;;;;;;11.58;nan;99828.94;4968037;28;20749;-88
2023/04/19 07:39:55;;;;;;;14.35;10.15;;;;;;;11.70;nan;99833.44;4969139;28;20686;-89
2023/04/19 07:42:24;;;;;;;14.20;11.48;;;;;;;11.85;nan;99828.94;4968955;28;20716;-88
2023/04/19 07:44:59;;;;;;;;;;;;;;;;;;;;;
2023/04/19 07:47:33;;;;;;;17.90;11.98;;;;;;;12.04;nan;99836.50;4967077;28;20639;-88
2023/04/19 07:50:01;;;;;;;16.13;11.80;;;;;;;12.09;nan;99839.69;4971184;28;20211;-87
2023/04/19 07:52:28;;;;;;;18.00;12.00;;;;;;;12.15;nan;99838.44;4972590;28;20610;-87
2023/04/19 07:55:00;;;;;;;19.17;11.88;;;;;;;12.21;nan;99832.78;4968833;28;20219;-88
2023/04/19 07:57:38;;;;;;;;;;;;;;;;;;;;;
2023/04/19 08:00:17;;;;;;;13.70;11.43;;;;;;;12.24;nan;99834.38;4970189;28;20448;-87
2023/04/19 08:02:47;;;;;;;16.45;12.18;;;;;;;12.27;nan;99837.63;4969807;28;20199;-88
2023/04/19 08:05:16;;;;;;;15.20;12.27;;;;;;;12.29;nan;99830.47;4971030;28;20277;-87
2023/04/19 08:07:46;;;;;;;19.58;12.20;;;;;;;12.30;nan;99829.50;4964161;28;21001;-88
2023/04/19 08:10:12;;;;;;;14.93;11.18;;;;;;;12.33;nan;99831.09;4956857;28;20674;-88
2023/04/19 08:12:45;;;;;;;14.17;10.93;;;;;;;12.39;nan;99830.69;4953015;28;20962;-87
2023/04/19 08:15:13;;;;;;;18.10;14.20;;;;;;;12.43;nan;99826.91;4957998;28;20349;-87
2023/04/19 08:17:51;;;;;;;;;;;;;;;;;;;;;
2023/04/19 08:20:20;;;;;;;15.73;11.00;;;;;;;12.40;nan;99829.75;4952042;28;20756;-87
2023/04/19 08:22:50;;;;;;;13.40;11.30;;;;;;;12.39;nan;99820.13;4958656;28;21413;-88
2023/04/19 08:25:27;;;;;;;15.43;11.00;;;;;;;12.44;nan;99823.31;4956708;28;20196;-87
2023/04/19 08:27:53;;;;;;;21.35;13.93;;;;;;;12.52;nan;99831.53;4955220;28;20513;-89
2023/04/19 08:30:29;;;;;;;17.92;12.90;;;;;;;12.60;nan;99829.22;4957187;28;20326;-88
2023/04/19 08:32:59;;;;;;;14.63;11.20;;;;;;;12.66;nan;99827.13;4955090;28;20547;-87
2023/04/19 08:35:44;;;;;;;16.65;10.93;;;;;;;12.71;nan;99830.28;4957752;28;20219;-88
2023/04/19 08:38:12;;;;;;;15.23;11.63;;;;;;;12.76;nan;99822.91;4957492;28;20226;-88
2023/04/19 08:40:45;;;;;;;19.00;11.63;;;;;;;12.82;nan;99822.47;4956193;28;20200;-88
2023/04/19 08:43:11;;;;;;;16.80;11.20;;;;;;;12.92;nan;99820.03;4938321;28;20218;-88
2023/04/19 08:46:04;;;;;;;18.63;11.90;;;;;;;13.00;nan;99821.19;4926606;28;20254;-87
2023/04/19 08:48:47;;;;;;;19.13;11.63;;;;;;;13.10;nan;99817.91;4959016;28;20199;-87
2023/04/19 08:51:36;;;;;;;;;;;;;;;;;;;;;
2023/04/19 08:54:25;;;;;;;;;;;;;;;;;;;;;
2023/04/19 08:56:55;;;;;;;17.05;11.65;;;;;;;13.35;nan;99815.25;4956645;28;20212;-87
2023/04/19 08:59:46;;;;;;;;;;;;;;;;;;;;;
2023/04/19 09:02:35;;;;;;;;;;;;;;;;;;;;;
2023/04/19 09:05:01;;;;;;;12.85;10.55;;;;;;;13.53;nan;99807.81;4955518;28;21006;-87
2023/04/19 09:07:29;;;;;;;15.80;10.27;;;;;;;13.61;nan;99812.50;4961806;28;20572;-87
2023/04/19 09:10:10;;;;;;;17.27;10.60;;;;;;;13.64;nan;99810.50;4977716;28;20580;-88
2023/04/19 09:12:51;;;;;;;;;;;;;;;;;;;;;
2023/04/19 09:15:42;;;;;;;14.52;9.70;;;;;;;13.76;nan;99799.97;4970132;28;20690;-86
2023/04/19 09:18:23;;;;;;;;;;;;;;;;;;;;;
2023/04/19 09:20:59;;;;;;;14.48;11.20;;;;;;;13.87;nan;99802.66;4969813;28;20191;-87
2023/04/19 09:23:27;;;;;;;13.48;10.85;;;;;;;13.95;nan;99797.66;4969727;28;20340;-86
2023/04/19 09:26:11;;;;;;;;;;;;;;;;;;;;;
2023/04/19 09:28:37;;;;;;;12.52;10.27;;;;;;;14.04;nan;99785.56;4969349;28;20305;-86
2023/04/19 09:31:17;;;;;;;13.37;10.83;;;;;;;14.10;nan;99795.69;4966499;28;20294;-86
2023/04/19 09:33:44;;;;;;;15.45;11.00;;;;;;;14.13;nan;99787.53;4965563;28;20206;-86
2023/04/19 09:36:12;;;;;;;17.17;10.63;;;;;;;14.15;nan;99781.16;4973822;28;20458;-86
2023/04/19 09:38:50;;;;;;;15.38;11.88;;;;;;;14.14;nan;99782.09;4971949;28;20720;-86
2023/04/19 09:41:18;;;;;;;17.35;13.30;;;;;;;14.15;nan;99782.97;4970340;28;20278;-87
2023/04/19 09:43:52;;;;;;;16.17;10.85;;;;;;;14.15;nan;99775.03;4969092;28;20250;-87
2023/04/19 09:46:35;;;;;;;15.52;10.43;;;;;;;14.19;nan;99773.00;4968301;28;20218;-87
2023/04/19 09:49:15;;;;;;;14.90;10.30;;;;;;;14.22;nan;99776.25;4970151;28;21137;-87
2023/04/19 09:52:21;;;;;;;;;;;;;;;;;;;;;
2023/04/19 09:55:00;;;;;;;14.73;11.07;;;;;;;14.30;nan;99762.47;4962600;28;20241;-87
2023/04/19 09:57:25;;;;;;;13.73;9.85;;;;;;;14.34;nan;99766.56;4964814;28;20214;-87
2023/04/19 10:00:07;;;;;;;11.00;8.45;;;;;;;14.37;nan;99751.31;4970671;28;20199;-86
2023/04/19 10:02:50;;;;;;;;;;;;;;;;;;;;;
2023/04/19 10:05:24;;;;;;;11.05;9.90;;;;;;;14.46;nan;99756.84;4970643;28;20194;-87
2023/04/19 10:07:50;;;;;;;9.77;7.85;;;;;;;14.49;nan;99756.59;4965360;28;20230;-87
2023/04/19 10:10:29;;;;;;;;;;;;;;;;;;;;;
2023/04/19 10:13:25;;;;;;;10.85;8.05;;;;;;;14.56;nan;99749.91;4981994;28;20529;-87
2023/04/19 10:16:03;;;;;;;;;;;;;;;;;;;;;
2023/04/19 10:18:52;;;;;;;;;;;;;;;;;;;;;
2023/04/19 10:21:50;;;;;;;;;;;;;;;;;;;;;
2023/04/19 10:24:20;;;;;;;11.18;8.25;;;;;;;14.70;nan;99743.53;4964965;28;20212;-87
2023/04/19 10:27:09;;;;;;;8.65;7.45;;;;;;;14.72;nan;99734.53;4963039;28;20684;-86
2023/04/19 10:30:09;;;;;;;8.93;7.70;;;;;;;14.77;nan;99731.50;4966278;28;20210;-86
2023/04/19 10:32:54;;;;;;;;;;;;;;;;;;;;;
2023/04/19 10:35:46;;;;;;;;;;;;;;;;;;;;;
2023/04/19 10:38:46;;;;;;;10.30;7.13;;;;;;;14.91;nan;99725.97;4967305;28;20203;-86
2023/04/19 10:41:15;;;;;;;10.77;8.18;;;;;;;14.92;nan;99735.59;4969794;28;20199;-86
2023/04/19 10:43:55;;;;;;;10.07;7.40;;;;;;;14.93;nan;99731.13;4968522;28;20226;-87
2023/04/19 10:46:30;;;;;;;;;;;;;;;;;;;;;
2023/04/19 10:49:11;;;;;;;8.63;7.63;;;;;;;14.94;nan;99722.25;4968297;28;20209;-88
2023/04/19 10:51:58;;;;;;;;;;;;;;;;;;;;;
2023/04/19 10:54:38;;;;;;;12.55;9.80;;;;;;;14.88;nan;99723.56;4970995;28;20318;-87
2023/04/19 10:57:24;;;;;;;;;;;;;;;;;;;;;
2023/04/19 11:00:31;;;;;;;;;;;;;;;;;;;;;
2023/04/19 11:03:06;;;;;;;17.95;11.30;;;;;;;14.75;nan;99702.56;4969973;28;20230;-87
2023/04/19 11:06:26;;;;;;;13.30;10.55;;;;;;;14.74;nan;99703.53;4969926;28;20203;-88
2023/04/19 11:08:53;;;;;;;14.00;10.60;;;;;;;14.76;nan;99698.94;4968992;28;20227;-87
2023/04/19 11:11:24;;;;;;;19.80;10.25;;;;;;;14.80;nan;99689.81;4974486;28;20214;-87
2023/04/19 11:14:02;;;;;;;10.45;7.70;;;;;;;14.83;nan;99696.66;4971270;28;20195;-87
2023/04/19 11:16:28;;;;;;;11.07;9.27;;;;;;;14.85;nan;99688.59;4971189;28;20204;-87
2023/04/19 11:19:03;;;;;;;16.00;10.13;;;;;;;14.89;nan;99695.31;4980867;28;20222;-87
2023/04/19 11:21:41;;;;;;;11.40;9.57;;;;;;;14.92;nan;99689.78;4973964;28;20195;-87
2023/04/19 11:24:11;;;;;;;14.38;9.95;;;;;;;14.92;nan;99687.13;4974157;28;21027;-86
2023/04/19 11:26:36;;;;;;;13.82;10.00;;;;;;;14.90;nan;99684.59;4972321;28;20203;-86
2023/04/19 11:29:04;;;;;;;11.50;9.80;;;;;;;14.92;nan;99682.69;4980426;28;20200;-86
2023/04/19 11:31:35;;;;;;;14.43;10.23;;;;;;;14.95;nan;99682.44;4979347;28;20210;-87
2023/04/19 11:34:03;;;;;;;13.80;9.15;;;;;;;14.97;nan;99675.22;4972619;28;20416;-87
2023/04/19 11:36:42;;;;;;;;;;;;;;;;;;;;;
2023/04/19 11:39:10;;;;;;;11.95;9.20;;;;;;;15.01;nan;99675.81;4986682;28;20498;-86
2023/04/19 11:41:39;;;;;;;17.80;10.15;;;;;;;15.03;nan;99671.25;4975480;28;20198;-87
2023/04/19 11:44:15;;;;;;;14.07;10.73;;;;;;;15.07;nan;99675.31;4972312;28;20203;-86
2023/04/19 11:47:04;;;;;;;13.95;10.13;;;;;;;15.05;nan;99666.66;4970509;28;20206;-87
2023/04/19 11:49:39;;;;;;;10.88;8.50;;;;;;;15.06;nan;99663.03;4972519;28;20203;-86
2023/04/19 11:52:22;;;;;;;14.13;10.63;;;;;;;15.05;nan;99659.56;4973894;28;20192;-87
2023/04/19 11:55:02;;;;;;;14.40;9.05;;;;;;;15.10;nan;99664.50;4977449;28;20245;-86
2023/04/19 11:57:40;;;;;;;13.80;9.25;;;;;;;15.13;nan;99658.94;4972018;28;20192;-86
2023/04/19 12:00:09;;;;;;;11.13;8.55;;;;;;;15.16;nan;99658.69;4968857;28;20199;-87
2023/04/19 12:02:39;;;;;;;14.88;10.75;;;;;;;15.17;nan;99657.72;4972792;28;20370;-86
2023/04/19 12:05:23;;;;;;;;;;;;;;;;;;;;;
2023/04/19 12:08:17;;;;;;;;;;;;;;;;;;;;;
2023/04/19 12:11:23;;;;;;;15.25;11.80;;;;;;;15.24;nan;99650.97;4971333;28;21091;-87
2023/04/19 12:14:25;;;;;;;;;;;;;;;;;;;;;
2023/04/19 12:17:02;;;;;;;15.32;10.27;;;;;;;15.31;nan;99647.81;4967084;28;20211;-87
2023/04/19 12:19:50;;;;;;;13.13;9.52;;;;;;;15.31;nan;99650.44;4990336;28;20206;-86
2023/04/19 12:22:27;;;;;;;10.38;7.53;;;;;;;15.30;nan;99639.03;4968019;28;20233;-87
2023/04/19 12:24:54;;;;;;;9.20;8.20;;;;;;;15.32;nan;99646.84;4968750;28;20207;-87
2023/04/19 12:27:28;;;;;;;12.40;8.40;;;;;;;15.32;nan;99631.81;4971090;28;20703;-87
2023/04/19 12:30:11;;;;;;;;;;;;;;;;;;;;;
2023/04/19 12:33:19;;;;;;;;;;;;;;;;;;;;;
2023/04/19 12:36:31;;;;;;;;;;;;;;;;;;;;;
2023/04/19 12:39:31;;;;;;;;;;;;;;;;;;;;;
2023/04/19 12:42:28;;;;;;;;;;;;;;;;;;;;;
2023/04/19 12:45:44;;;;;;;;;;;;;;;;;;;;;
2023/04/19 12:48:55;;;;;;;;;;;;;;;;;;;;;
2023/04/19 12:52:00;;;;;;;11.18;8.18;;;;;;;15.58;nan;99620.84;4977067;28;20204;-89
2023/04/19 12:55:26;;;;;;;;;;;;;;;;;;;;;
2023/04/19 12:58:32;;;;;;;;;;;;;;;;;;;;;
2023/04/19 13:01:49;;;;;;;;;;;;;;;;;;;;;
2023/04/19 13:05:01;;;;;;;;;;;;;;;;;;;;;
2023/04/19 13:07:40;;;;;;;;;;;;;;;;;;;;;
2023/04/19 13:10:26;;;;;;;11.63;8.20;;;;;;;15.79;nan;99604.97;4976208;28;20368;-88
2023/04/19 13:13:17;;;;;;;;;;;;;;;;;;;;;
2023/04/19 13:16:01;;;;;;;9.70;8.38;;;;;;;15.83;nan;99590.50;4974350;28;20664;-89
2023/04/19 13:18:42;;;;;;;7.43;6.55;;;;;;;15.87;nan;99591.91;4973182;28;20206;-90
2023/04/19 13:21:31;;;;;;;;;;;;;;;;;;;;;
2023/04/19 13:24:24;;;;;;;7.95;7.15;;;;;;;15.85;nan;99585.91;4970100;28;20209;-89
2023/04/19 13:27:38;;;;;;;;;;;;;;;;;;;;;